Time;durP1;ratioP1;P1;durP2;ratioP2;P2;SDS_P1;SDS_P2;PMS_P1;PMS_P2;Temp;Humidity;BMP_temperature;BMP_pressure;BME280_temperature;BME280_humidity;BME280_pressure;Samples;Min_cycle;Max_cycle;Signal;HPM_P1;HPM_P2
2021/07/26 00:02:18;;;;;;;11.60;9.70;;;18.90;99.90;;;;;;6123993;23;20021;-82
2021/07/26 00:04:44;;;;;;;13.10;10.57;;;19.00;99.90;;;;;;6125393;23;20044;-81
2021/07/26 00:07:10;;;;;;;14.63;11.45;;;19.10;99.90;;;;;;6160045;23;20494;-82
2021/07/26 00:09:37;;;;;;;14.85;10.85;;;19.10;99.90;;;;;;6161773;23;20096;-82
2021/07/26 00:12:04;;;;;;;14.57;10.95;;;19.10;99.90;;;;;;6135488;23;20017;-82
2021/07/26 00:14:31;;;;;;;14.52;11.30;;;19.10;99.90;;;;;;6159868;23;20092;-81
2021/07/26 00:16:57;;;;;;;14.63;11.48;;;19.10;99.90;;;;;;6124876;23;20018;-81
2021/07/26 00:19:23;;;;;;;13.57;10.93;;;19.10;99.90;;;;;;6149568;23;20013;-81
2021/07/26 00:21:52;;;;;;;16.65;10.90;;;19.10;99.90;;;;;;6133421;23;20017;-82
2021/07/26 00:24:19;;;;;;;17.05;11.63;;;19.20;99.90;;;;;;6150328;23;20308;-81
2021/07/26 00:26:45;;;;;;;18.90;11.95;;;19.10;99.90;;;;;;6161630;23;20036;-82
2021/07/26 00:29:11;;;;;;;19.83;12.32;;;19.10;99.90;;;;;;6151322;23;20020;-82
2021/07/26 00:31:37;;;;;;;17.35;12.88;;;19.20;99.90;;;;;;6100172;23;20013;-82
2021/07/26 00:34:25;;;;;;;22.50;14.00;;;19.30;99.90;;;;;;6150730;23;20041;-81
2021/07/26 00:36:56;;;;;;;17.05;13.88;;;19.30;99.90;;;;;;6124808;23;20013;-82
2021/07/26 00:39:27;;;;;;;17.60;14.07;;;19.20;99.90;;;;;;6123945;23;20033;-81
2021/07/26 00:41:54;;;;;;;21.70;13.80;;;19.20;99.90;;;;;;6123602;23;20116;-81
2021/07/26 00:44:22;;;;;;;18.33;14.38;;;19.30;99.90;;;;;;6173996;23;20041;-82
2021/07/26 00:46:49;;;;;;;16.65;14.05;;;19.20;99.90;;;;;;6187574;23;20013;-80
2021/07/26 00:49:16;;;;;;;21.20;15.50;;;19.20;99.90;;;;;;6187128;23;20072;-81
2021/07/26 00:51:48;;;;;;;20.98;15.82;;;19.30;99.90;;;;;;6161973;23;20036;-80
2021/07/26 00:54:25;;;;;;;19.25;15.68;;;19.30;99.90;;;;;;6186423;23;20021;-81
2021/07/26 00:56:53;;;;;;;24.88;15.85;;;19.30;99.90;;;;;;6173236;23;20013;-82
2021/07/26 00:59:19;;;;;;;20.23;15.85;;;19.30;99.90;;;;;;6162645;23;20024;-81
2021/07/26 01:01:46;;;;;;;19.50;14.00;;;19.20;99.90;;;;;;6123335;23;20013;-81
2021/07/26 01:04:12;;;;;;;18.98;14.75;;;19.20;99.90;;;;;;6130366;23;20025;-83
2021/07/26 01:06:39;;;;;;;16.77;13.73;;;19.20;99.90;;;;;;6124112;23;20338;-82
2021/07/26 01:09:05;;;;;;;24.23;15.02;;;19.20;99.90;;;;;;6134373;23;20020;-81
2021/07/26 01:11:31;;;;;;;27.20;17.95;;;19.20;99.90;;;;;;6162638;23;20136;-81
2021/07/26 01:13:57;;;;;;;20.52;17.17;;;19.10;99.90;;;;;;6134772;23;20323;-82
2021/07/26 01:16:23;;;;;;;24.02;17.35;;;19.10;99.90;;;;;;6162677;23;20600;-82
2021/07/26 01:18:50;;;;;;;25.63;17.33;;;19.10;99.90;;;;;;6125463;23;20049;-81
2021/07/26 01:21:18;;;;;;;23.58;17.92;;;19.00;99.90;;;;;;6160886;23;20068;-81
2021/07/26 01:23:46;;;;;;;23.35;17.25;;;19.00;99.90;;;;;;6125080;23;20033;-82
2021/07/26 01:26:14;;;;;;;31.55;19.73;;;19.00;99.90;;;;;;6152295;23;20036;-81
2021/07/26 01:28:43;;;;;;;26.10;19.92;;;18.90;99.90;;;;;;6134766;23;20013;-81
2021/07/26 01:31:10;;;;;;;27.20;18.15;;;18.90;99.90;;;;;;6125716;23;20039;-82
2021/07/26 01:33:37;;;;;;;25.58;19.33;;;18.90;99.90;;;;;;6154550;23;20022;-82
2021/07/26 01:36:04;;;;;;;26.23;17.70;;;18.90;99.90;;;;;;6125512;23;20438;-82
2021/07/26 01:38:30;;;;;;;24.45;20.08;;;18.90;99.90;;;;;;6123848;23;20014;-81
2021/07/26 01:41:07;;;;;;;26.90;19.67;;;18.90;99.90;;;;;;6161103;23;20017;-81
2021/07/26 01:43:34;;;;;;;26.30;18.25;;;18.80;99.90;;;;;;6161038;23;20017;-82
2021/07/26 01:46:11;;;;;;;25.10;18.35;;;18.80;99.90;;;;;;6161096;23;20096;-81
2021/07/26 01:48:50;;;;;;;22.83;18.08;;;18.80;99.90;;;;;;6129564;23;20068;-81
2021/07/26 01:51:23;;;;;;;34.00;21.73;;;18.70;99.90;;;;;;6161621;23;20092;-81
2021/07/26 01:53:50;;;;;;;26.42;20.52;;;18.70;99.90;;;;;;6103338;23;20141;-81
2021/07/26 01:56:16;;;;;;;27.65;20.10;;;18.60;99.90;;;;;;6127205;23;20105;-81
2021/07/26 01:58:43;;;;;;;26.77;20.70;;;18.60;99.90;;;;;;6122878;23;20450;-82
2021/07/26 02:01:08;;;;;;;33.85;22.00;;;18.60;99.90;;;;;;6121919;23;20052;-82
2021/07/26 02:03:34;;;;;;;30.23;22.63;;;18.60;99.90;;;;;;6126600;23;20038;-81
2021/07/26 02:06:00;;;;;;;33.63;22.60;;;18.60;99.90;;;;;;6120757;23;20032;-82
2021/07/26 02:08:26;;;;;;;32.03;23.58;;;18.60;99.90;;;;;;6133334;23;20296;-82
2021/07/26 02:10:51;;;;;;;32.25;21.98;;;18.60;99.90;;;;;;6132913;23;20009;-81
2021/07/26 02:13:17;;;;;;;33.75;22.52;;;18.50;99.90;;;;;;6124441;23;20478;-81
2021/07/26 02:15:43;;;;;;;34.05;22.45;;;18.50;99.90;;;;;;6131959;23;20869;-82
2021/07/26 02:18:08;;;;;;;35.78;22.25;;;18.50;99.90;;;;;;6128766;23;20750;-81
2021/07/26 02:20:35;;;;;;;32.10;22.00;;;18.50;99.90;;;;;;6122917;23;20028;-82
2021/07/26 02:23:00;;;;;;;32.20;22.77;;;18.40;99.90;;;;;;6122551;23;20089;-82
2021/07/26 02:25:26;;;;;;;32.70;22.10;;;18.40;99.90;;;;;;6120701;23;20020;-81
2021/07/26 02:27:52;;;;;;;29.83;21.15;;;18.40;99.90;;;;;;6122007;23;20018;-81
2021/07/26 02:30:18;;;;;;;31.83;21.75;;;18.30;99.90;;;;;;6120945;23;20018;-82
2021/07/26 02:32:44;;;;;;;28.65;21.92;;;18.20;99.90;;;;;;6122226;23;20021;-81
2021/07/26 02:35:10;;;;;;;30.80;20.77;;;18.20;99.90;;;;;;6133035;23;20057;-82
2021/07/26 02:37:36;;;;;;;32.10;20.90;;;18.20;99.90;;;;;;6124840;23;20072;-81
2021/07/26 02:40:02;;;;;;;29.85;21.92;;;18.10;99.90;;;;;;6132709;23;20771;-81
2021/07/26 02:42:28;;;;;;;33.90;22.45;;;18.10;99.90;;;;;;6120837;23;20030;-81
2021/07/26 02:44:53;;;;;;;30.38;20.55;;;18.00;99.90;;;;;;6133412;23;20021;-83
2021/07/26 02:47:19;;;;;;;30.30;20.45;;;17.90;99.90;;;;;;6130738;23;20014;-82
2021/07/26 02:49:45;;;;;;;25.77;19.52;;;17.90;99.90;;;;;;6097103;23;20010;-82
2021/07/26 02:52:10;;;;;;;29.58;20.00;;;17.90;99.90;;;;;;6132810;23;20120;-81
2021/07/26 02:54:36;;;;;;;27.95;19.58;;;17.90;99.90;;;;;;6130909;23;20431;-82
2021/07/26 02:57:02;;;;;;;31.85;20.30;;;17.80;99.90;;;;;;6125045;23;20506;-80
2021/07/26 02:59:28;;;;;;;26.33;19.25;;;17.80;99.90;;;;;;6125756;23;20013;-81
2021/07/26 03:01:54;;;;;;;31.95;19.52;;;17.80;99.90;;;;;;6150824;23;20017;-81
2021/07/26 03:04:19;;;;;;;28.15;19.55;;;17.80;99.90;;;;;;6124980;23;20017;-80
2021/07/26 03:06:45;;;;;;;26.48;19.90;;;17.80;99.90;;;;;;6161774;23;20024;-81
2021/07/26 03:09:11;;;;;;;27.00;20.08;;;17.70;99.90;;;;;;6162628;23;20049;-81
2021/07/26 03:11:37;;;;;;;28.58;19.00;;;17.70;99.90;;;;;;6136285;23;20014;-81
2021/07/26 03:14:04;;;;;;;28.67;18.95;;;17.70;99.90;;;;;;6125807;23;20033;-81
2021/07/26 03:16:30;;;;;;;32.40;22.20;;;17.70;99.90;;;;;;6124991;23;20014;-82
2021/07/26 03:18:56;;;;;;;29.60;20.30;;;17.60;99.90;;;;;;6155850;23;20438;-82
2021/07/26 03:21:22;;;;;;;28.65;21.02;;;17.60;99.90;;;;;;6135889;23;20022;-81
2021/07/26 03:23:48;;;;;;;28.13;20.52;;;17.50;99.90;;;;;;6137177;23;20049;-81
2021/07/26 03:26:14;;;;;;;34.95;22.88;;;17.50;99.90;;;;;;6126678;23;20014;-80
2021/07/26 03:28:40;;;;;;;36.63;21.30;;;17.50;99.90;;;;;;6125493;23;20372;-81
2021/07/26 03:31:06;;;;;;;35.67;20.95;;;17.40;99.90;;;;;;6127811;23;20315;-81
2021/07/26 03:33:32;;;;;;;25.98;20.10;;;17.40;99.90;;;;;;6161638;23;20013;-81
2021/07/26 03:35:58;;;;;;;29.08;19.85;;;17.40;99.90;;;;;;6162829;23;20315;-81
2021/07/26 03:38:25;;;;;;;31.98;21.60;;;17.50;99.90;;;;;;6135936;23;20024;-81
2021/07/26 03:40:51;;;;;;;34.97;21.15;;;17.30;99.90;;;;;;6151703;23;20009;-82
2021/07/26 03:43:18;;;;;;;30.40;20.02;;;17.40;99.90;;;;;;6136706;23;20136;-81
2021/07/26 03:45:44;;;;;;;25.65;18.15;;;17.40;99.90;;;;;;6101429;23;20045;-82
2021/07/26 03:48:10;;;;;;;24.20;17.33;;;17.30;99.90;;;;;;6124871;23;20096;-81
2021/07/26 03:50:36;;;;;;;25.20;16.92;;;17.30;99.90;;;;;;6125450;23;20041;-80
2021/07/26 03:53:02;;;;;;;22.15;16.85;;;17.30;99.90;;;;;;6135223;23;20018;-81
2021/07/26 03:55:30;;;;;;;29.65;19.15;;;17.30;99.90;;;;;;6162243;23;20021;-82
2021/07/26 03:57:58;;;;;;;28.67;18.95;;;17.30;99.90;;;;;;6157120;23;20017;-81
2021/07/26 04:00:26;;;;;;;29.77;19.98;;;17.20;99.90;;;;;;6124398;23;20116;-81
2021/07/26 04:03:05;;;;;;;29.08;19.05;;;17.30;99.90;;;;;;6159434;23;20096;-81
2021/07/26 04:05:37;;;;;;;28.35;20.20;;;17.30;99.90;;;;;;6124549;23;20020;-80
2021/07/26 04:08:06;;;;;;;30.10;19.83;;;17.30;99.90;;;;;;6137450;23;20025;-81
2021/07/26 04:10:33;;;;;;;32.80;21.20;;;17.30;99.90;;;;;;6126849;23;20107;-81
2021/07/26 04:12:59;;;;;;;32.78;20.50;;;17.40;99.90;;;;;;6136756;23;20461;-82
2021/07/26 04:15:25;;;;;;;33.88;21.30;;;17.40;99.90;;;;;;6135510;23;20021;-81
2021/07/26 04:17:50;;;;;;;34.72;23.35;;;17.40;99.90;;;;;;6123527;23;20095;-82
2021/07/26 04:20:20;;;;;;;32.40;21.85;;;17.40;99.90;;;;;;6163775;23;20014;-81
2021/07/26 04:22:47;;;;;;;36.85;25.23;;;17.40;99.90;;;;;;6156071;23;20330;-81
2021/07/26 04:25:14;;;;;;;36.35;24.33;;;17.40;99.90;;;;;;6142070;23;20048;-80
2021/07/26 04:27:40;;;;;;;41.90;26.00;;;17.40;99.90;;;;;;6166835;23;20169;-80
2021/07/26 04:30:14;;;;;;;42.58;28.90;;;17.50;99.90;;;;;;6149348;23;20001;-81
2021/07/26 04:32:44;;;;;;;41.03;28.75;;;17.60;99.90;;;;;;6159975;23;20018;-80
2021/07/26 04:35:12;;;;;;;45.97;30.38;;;17.60;99.90;;;;;;6158481;23;20009;-81
2021/07/26 04:37:38;;;;;;;50.13;34.33;;;17.70;99.90;;;;;;6154363;23;20013;-81
2021/07/26 04:40:05;;;;;;;45.10;31.08;;;17.80;99.90;;;;;;6135002;23;20333;-80
2021/07/26 04:42:32;;;;;;;48.80;32.83;;;17.90;99.90;;;;;;6124773;23;20442;-81
2021/07/26 04:44:58;;;;;;;51.40;33.00;;;17.90;99.90;;;;;;6161917;23;20028;-80
2021/07/26 04:47:24;;;;;;;47.33;32.58;;;18.00;99.90;;;;;;6126130;23;20068;-82
2021/07/26 04:49:50;;;;;;;51.55;33.72;;;18.10;99.90;;;;;;6151998;23;20080;-81
2021/07/26 04:52:15;;;;;;;46.83;32.72;;;18.20;99.90;;;;;;6162293;23;20430;-81
2021/07/26 04:54:41;;;;;;;42.70;31.08;;;18.30;99.90;;;;;;6126697;23;20017;-81
2021/07/26 04:57:09;;;;;;;47.22;32.25;;;18.40;99.90;;;;;;6135754;23;20020;-81
2021/07/26 04:59:35;;;;;;;46.30;32.42;;;18.50;99.90;;;;;;6136984;23;20010;-81
2021/07/26 05:02:03;;;;;;;44.20;30.55;;;18.60;99.90;;;;;;6124888;23;20453;-81
2021/07/26 05:04:29;;;;;;;36.67;27.27;;;18.70;99.90;;;;;;6122429;23;20049;-79
2021/07/26 05:07:02;;;;;;;40.08;27.52;;;18.90;99.90;;;;;;6124100;23;20048;-80
2021/07/26 05:09:28;;;;;;;39.92;27.25;;;18.90;99.90;;;;;;6160985;23;20017;-79
2021/07/26 05:12:01;;;;;;;34.92;23.15;;;19.10;99.90;;;;;;6150550;23;20373;-80
2021/07/26 05:14:28;;;;;;;36.13;25.35;;;19.30;99.90;;;;;;6159782;23;20052;-80
2021/07/26 05:16:53;;;;;;;30.92;23.13;;;19.50;99.90;;;;;;6160813;23;20093;-80
2021/07/26 05:19:20;;;;;;;32.53;23.42;;;19.50;99.90;;;;;;6129101;23;20447;-79
2021/07/26 05:21:45;;;;;;;26.90;19.38;;;19.50;99.90;;;;;;6125193;23;20033;-81
2021/07/26 05:24:12;;;;;;;29.20;23.67;;;19.50;99.90;;;;;;6153622;23;20311;-79
2021/07/26 05:26:37;;;;;;;28.67;21.08;;;19.50;99.90;;;;;;6162276;23;20024;-79
2021/07/26 05:29:03;;;;;;;27.80;19.73;;;19.50;99.90;;;;;;6163781;23;20415;-78
2021/07/26 05:31:29;;;;;;;24.52;18.95;;;19.50;99.90;;;;;;6126018;23;20389;-77
2021/07/26 05:33:55;;;;;;;20.67;17.27;;;19.60;99.90;;;;;;6127134;23;20127;-78
2021/07/26 05:36:24;;;;;;;26.60;21.75;;;19.60;99.90;;;;;;6128184;23;20462;-76
2021/07/26 05:38:50;;;;;;;22.33;18.50;;;19.50;99.90;;;;;;6126725;23;20020;-75
2021/07/26 05:41:17;;;;;;;22.02;17.63;;;19.50;99.90;;;;;;6138341;23;20017;-77
2021/07/26 05:43:43;;;;;;;20.65;17.27;;;19.60;99.90;;;;;;6125559;23;20022;-78
2021/07/26 05:46:08;;;;;;;19.80;16.15;;;19.60;99.90;;;;;;6151565;23;20013;-77
2021/07/26 05:48:34;;;;;;;20.40;15.68;;;19.60;99.90;;;;;;6122432;23;20022;-78
2021/07/26 05:51:00;;;;;;;20.17;15.23;;;19.70;99.90;;;;;;6133848;23;20020;-78
2021/07/26 05:53:26;;;;;;;20.52;16.42;;;19.70;99.90;;;;;;6161031;23;20013;-75
2021/07/26 05:55:51;;;;;;;19.05;14.55;;;19.80;99.90;;;;;;6135593;23;20048;-76
2021/07/26 05:58:17;;;;;;;19.33;15.02;;;19.80;99.90;;;;;;6119308;23;20025;-76
2021/07/26 06:00:56;;;;;;;19.80;15.52;;;19.80;99.90;;;;;;6129603;23;20020;-77
2021/07/26 06:03:22;;;;;;;20.52;16.63;;;19.90;99.90;;;;;;6127931;23;20502;-80
2021/07/26 06:05:48;;;;;;;19.55;15.27;;;19.90;99.90;;;;;;6122362;23;20017;-78
2021/07/26 06:08:13;;;;;;;17.58;14.82;;;19.80;99.90;;;;;;6122914;23;20092;-77
2021/07/26 06:10:39;;;;;;;20.83;16.63;;;19.90;99.90;;;;;;6133272;23;20017;-78
2021/07/26 06:13:05;;;;;;;21.30;15.10;;;19.90;99.90;;;;;;6130149;23;20084;-79
2021/07/26 06:15:31;;;;;;;17.70;14.38;;;20.00;99.90;;;;;;6133978;23;20335;-79
2021/07/26 06:17:56;;;;;;;20.23;14.60;;;20.00;99.90;;;;;;6130565;23;20106;-79
2021/07/26 06:20:22;;;;;;;20.33;15.60;;;20.00;99.90;;;;;;6122364;23;20025;-80
2021/07/26 06:22:53;;;;;;;19.45;14.95;;;20.00;99.90;;;;;;6122718;23;20027;-79
2021/07/26 06:25:19;;;;;;;17.73;13.55;;;20.10;99.90;;;;;;6122268;23;20033;-80
2021/07/26 06:27:45;;;;;;;18.20;13.82;;;20.20;99.90;;;;;;6132264;23;20088;-80
2021/07/26 06:30:11;;;;;;;14.52;12.45;;;20.20;99.90;;;;;;6133010;23;20041;-81
2021/07/26 06:32:37;;;;;;;17.25;12.50;;;20.20;99.90;;;;;;6132531;23;20018;-79
2021/07/26 06:35:05;;;;;;;15.63;12.65;;;20.20;99.90;;;;;;6122760;23;20049;-80
2021/07/26 06:37:31;;;;;;;16.23;11.93;;;20.30;99.90;;;;;;6121420;23;20009;-80
2021/07/26 06:39:57;;;;;;;15.95;12.23;;;20.30;99.90;;;;;;6122399;23;20132;-80
2021/07/26 06:42:23;;;;;;;18.20;11.70;;;20.40;99.90;;;;;;6132278;23;20620;-80
2021/07/26 06:44:48;;;;;;;15.63;12.02;;;20.50;99.90;;;;;;6123690;23;20045;-80
2021/07/26 06:47:16;;;;;;;16.33;10.60;;;20.60;99.90;;;;;;6131948;23;20443;-80
2021/07/26 06:49:42;;;;;;;15.43;11.57;;;20.60;99.90;;;;;;6122335;23;20014;-79
2021/07/26 06:52:08;;;;;;;15.25;11.95;;;20.60;99.90;;;;;;6122135;23;20040;-79
2021/07/26 06:54:33;;;;;;;14.02;12.43;;;20.60;99.90;;;;;;6132148;23;20021;-80
2021/07/26 06:56:59;;;;;;;14.80;11.95;;;20.70;99.90;;;;;;6122995;23;20040;-81
2021/07/26 06:59:25;;;;;;;16.92;11.95;;;20.70;99.90;;;;;;6124542;23;20025;-82
2021/07/26 07:01:50;;;;;;;16.35;10.80;;;20.70;99.90;;;;;;6134562;23;20014;-83
2021/07/26 07:04:16;;;;;;;12.00;9.27;;;20.70;99.90;;;;;;6147154;23;20022;-82
2021/07/26 07:06:42;;;;;;;10.98;9.85;;;20.80;99.90;;;;;;6132762;23;20017;-82
2021/07/26 07:09:08;;;;;;;11.80;8.63;;;20.80;99.90;;;;;;6133656;23;20065;-83
2021/07/26 07:11:33;;;;;;;12.15;8.75;;;20.90;99.90;;;;;;6121814;23;20014;-82
2021/07/26 07:13:59;;;;;;;11.63;8.60;;;20.90;99.90;;;;;;6131958;23;20072;-81
2021/07/26 07:16:25;;;;;;;17.08;8.70;;;21.00;99.90;;;;;;6130484;23;20109;-81
2021/07/26 07:18:55;;;;;;;11.82;8.32;;;21.00;99.90;;;;;;6120878;23;20029;-80
2021/07/26 07:21:22;;;;;;;13.02;7.88;;;21.00;99.90;;;;;;6131713;23;20020;-81
2021/07/26 07:23:49;;;;;;;10.18;7.00;;;21.10;99.90;;;;;;6131369;23;20018;-82
2021/07/26 07:26:16;;;;;;;10.18;6.63;;;21.20;99.90;;;;;;6121282;23;20017;-83
2021/07/26 07:28:44;;;;;;;7.25;5.60;;;21.30;99.90;;;;;;6132058;23;20014;-82
2021/07/26 07:31:10;;;;;;;10.02;5.53;;;21.40;99.90;;;;;;6131265;23;20104;-82
2021/07/26 07:33:38;;;;;;;6.60;4.47;;;21.40;99.90;;;;;;6122271;23;20021;-81
2021/07/26 07:36:05;;;;;;;6.30;4.40;;;21.60;99.90;;;;;;6132752;23;20014;-81
2021/07/26 07:38:31;;;;;;;10.55;4.45;;;21.60;99.90;;;;;;6132092;23;20021;-82
2021/07/26 07:40:58;;;;;;;5.88;4.30;;;21.70;99.90;;;;;;6122765;23;20018;-81
2021/07/26 07:43:25;;;;;;;7.45;4.20;;;21.70;99.90;;;;;;6121104;23;20490;-82
2021/07/26 07:45:51;;;;;;;6.68;4.30;;;21.70;99.90;;;;;;6132953;23;20096;-80
2021/07/26 07:48:20;;;;;;;7.82;4.45;;;21.70;99.90;;;;;;6120368;23;20021;-81
2021/07/26 07:50:46;;;;;;;7.70;4.28;;;21.80;99.90;;;;;;6121424;23;20506;-80
2021/07/26 07:53:12;;;;;;;8.82;4.45;;;21.80;99.90;;;;;;6122450;23;20014;-79
2021/07/26 07:55:38;;;;;;;6.90;4.70;;;21.90;99.90;;;;;;6135467;23;20092;-82
2021/07/26 07:58:05;;;;;;;7.35;4.55;;;22.00;99.90;;;;;;6142913;23;20025;-82
2021/07/26 08:00:31;;;;;;;6.93;4.50;;;22.10;99.90;;;;;;6143849;23;20018;-79
2021/07/26 08:02:57;;;;;;;6.72;4.40;;;22.20;99.90;;;;;;6155234;23;20032;-81
2021/07/26 08:05:43;;;;;;;7.47;4.10;;;22.20;99.90;;;;;;6129772;23;20022;-81
2021/07/26 08:08:09;;;;;;;6.65;4.30;;;22.40;99.90;;;;;;6131069;23;20014;-80
2021/07/26 08:10:34;;;;;;;6.57;4.00;;;22.40;99.90;;;;;;6139343;23;20014;-81
2021/07/26 08:13:01;;;;;;;10.50;4.10;;;22.50;99.90;;;;;;6134068;23;20018;-81
2021/07/26 08:15:26;;;;;;;9.80;4.90;;;22.60;99.90;;;;;;6121520;23;20062;-81
2021/07/26 08:17:52;;;;;;;5.63;4.50;;;22.60;99.90;;;;;;6131357;23;20029;-82
2021/07/26 08:20:18;;;;;;;7.63;4.93;;;22.60;99.90;;;;;;6125061;23;20890;-82
2021/07/26 08:22:45;;;;;;;9.35;4.72;;;22.60;99.90;;;;;;6120626;23;20026;-82
2021/07/26 08:25:12;;;;;;;6.82;4.50;;;22.60;99.90;;;;;;6130039;23;20014;-81
2021/07/26 08:27:56;;;;;;;8.05;4.35;;;22.60;99.90;;;;;;6131167;23;20024;-81
2021/07/26 08:30:30;;;;;;;7.80;4.40;;;22.70;99.90;;;;;;6119337;23;20052;-82
2021/07/26 08:32:56;;;;;;;8.05;5.15;;;22.90;99.90;;;;;;6118702;23;20022;-81
2021/07/26 08:35:23;;;;;;;7.72;4.90;;;23.00;99.90;;;;;;6120524;23;20098;-81
2021/07/26 08:37:49;;;;;;;7.88;4.72;;;23.00;99.90;;;;;;6120249;23;20044;-81
2021/07/26 08:40:16;;;;;;;9.88;4.75;;;23.10;99.90;;;;;;6121591;23;20021;-81
2021/07/26 08:42:42;;;;;;;11.20;5.20;;;23.10;99.90;;;;;;6123034;23;20034;-82
2021/07/26 08:45:09;;;;;;;6.93;5.00;;;23.20;99.90;;;;;;6121368;23;20030;-80
2021/07/26 08:47:38;;;;;;;10.82;4.88;;;23.30;99.90;;;;;;6119263;23;20010;-81
2021/07/26 08:50:05;;;;;;;9.70;5.40;;;23.40;99.90;;;;;;6122674;23;20010;-80
2021/07/26 08:52:41;;;;;;;11.23;5.95;;;23.40;99.90;;;;;;6122006;23;20077;-78
2021/07/26 08:55:18;;;;;;;6.38;4.82;;;23.40;99.90;;;;;;6118224;23;20045;-79
2021/07/26 08:57:46;;;;;;;8.27;5.40;;;23.50;99.90;;;;;;6132332;23;20021;-77
2021/07/26 09:00:14;;;;;;;13.20;6.93;;;23.60;99.90;;;;;;6124691;23;20450;-77
2021/07/26 09:02:40;;;;;;;11.73;5.20;;;23.70;99.90;;;;;;6124879;23;20430;-78
2021/07/26 09:05:07;;;;;;;9.85;4.60;;;23.80;99.90;;;;;;6125114;23;20401;-77
2021/07/26 09:07:37;;;;;;;9.15;4.88;;;23.90;99.90;;;;;;6164266;23;20041;-77
2021/07/26 09:10:10;;;;;;;6.75;4.55;;;24.00;99.90;;;;;;6103121;23;20009;-76
2021/07/26 09:12:37;;;;;;;4.70;4.00;;;24.00;99.90;;;;;;6163720;23;20013;-79
2021/07/26 09:15:04;;;;;;;8.13;4.38;;;24.20;99.90;;;;;;6126736;23;20453;-78
2021/07/26 09:17:45;;;;;;;8.82;4.35;;;24.20;99.90;;;;;;6126484;23;20088;-79
2021/07/26 09:20:12;;;;;;;7.32;3.97;;;24.20;99.90;;;;;;6126557;23;20021;-78
2021/07/26 09:22:41;;;;;;;6.50;4.03;;;24.30;99.90;;;;;;6152308;23;20017;-79
2021/07/26 09:25:20;;;;;;;8.40;4.90;;;24.30;99.90;;;;;;6164101;23;20056;-79
2021/07/26 09:28:12;;;;;;;7.57;4.38;;;24.40;99.90;;;;;;6103530;23;20026;-78
2021/07/26 09:30:46;;;;;;;7.65;3.92;;;24.50;99.90;;;;;;6164551;23;20064;-80
2021/07/26 09:33:29;;;;;;;7.30;4.00;;;24.50;99.90;;;;;;6136854;23;20092;-81
2021/07/26 09:36:08;;;;;;;5.72;4.15;;;24.60;99.90;;;;;;6127990;23;20022;-82
2021/07/26 09:38:36;;;;;;;5.85;3.60;;;24.80;99.90;;;;;;6103752;23;20096;-83
2021/07/26 09:41:05;;;;;;;5.93;4.07;;;24.60;99.90;;;;;;6152527;23;20018;-84
2021/07/26 09:43:31;;;;;;;5.68;4.00;;;24.70;99.90;;;;;;6153693;23;20315;-81
2021/07/26 09:45:59;;;;;;;5.78;4.30;;;24.70;99.90;;;;;;6128670;23;20076;-83
2021/07/26 09:48:30;;;;;;;5.50;3.65;;;25.00;99.90;;;;;;6127292;23;20327;-84
2021/07/26 09:50:57;;;;;;;7.70;3.92;;;25.10;99.90;;;;;;6127426;23;20021;-84
2021/07/26 09:53:25;;;;;;;5.40;3.67;;;25.20;99.90;;;;;;6137940;23;20085;-82
2021/07/26 09:56:13;;;;;;;6.95;3.60;;;25.30;99.90;;;;;;6127003;23;20024;-81
2021/07/26 09:58:40;;;;;;;6.10;3.80;;;25.20;99.90;;;;;;6128034;23;20018;-82
2021/07/26 10:01:08;;;;;;;7.90;4.07;;;25.20;99.90;;;;;;6123634;23;20316;-81
2021/07/26 10:03:39;;;;;;;10.20;3.58;;;25.20;99.90;;;;;;6130445;23;20028;-81
2021/07/26 10:06:06;;;;;;;5.57;3.78;;;25.30;99.90;;;;;;6125282;23;20112;-83
2021/07/26 10:08:32;;;;;;;5.57;3.67;;;25.30;99.90;;;;;;6122555;23;20014;-82
2021/07/26 10:10:58;;;;;;;4.32;3.50;;;25.40;99.90;;;;;;6125450;23;20379;-81
2021/07/26 10:13:24;;;;;;;8.23;3.50;;;25.60;99.90;;;;;;6143824;23;20014;-85
2021/07/26 10:15:50;;;;;;;6.63;4.10;;;25.80;99.90;;;;;;6124291;23;20072;-82
2021/07/26 10:18:16;;;;;;;9.27;3.72;;;26.00;99.90;;;;;;6135730;23;20486;-82
2021/07/26 10:21:03;;;;;;;4.70;3.30;;;26.10;99.90;;;;;;6126163;23;20010;-82
2021/07/26 10:23:36;;;;;;;3.53;3.13;;;26.20;99.90;;;;;;6134029;23;20010;-83
2021/07/26 10:26:06;;;;;;;4.30;3.00;;;26.20;99.90;;;;;;6100990;23;20059;-83
2021/07/26 10:28:41;;;;;;;3.55;2.60;;;26.00;99.90;;;;;;6148802;23;20022;-83
2021/07/26 10:31:25;;;;;;;;;;;26.00;99.90;;;;;;6148986;23;20018;-83
2021/07/26 10:34:19;;;;;;;4.32;2.90;;;25.90;99.90;;;;;;6134923;23;20318;-83
2021/07/26 10:36:46;;;;;;;2.95;2.60;;;26.30;99.90;;;;;;6123898;23;20037;-81
2021/07/26 10:39:16;;;;;;;6.75;2.83;;;26.60;99.90;;;;;;6123375;23;20014;-80
2021/07/26 10:41:45;;;;;;;7.88;2.80;;;27.00;99.90;;;;;;6135852;23;20435;-80
2021/07/26 10:44:17;;;;;;;7.85;2.50;;;26.90;99.90;;;;;;6136260;23;20022;-79
2021/07/26 10:47:04;;;;;;;3.63;2.60;;;27.30;99.90;;;;;;6125949;23;20014;-79
2021/07/26 10:49:51;;;;;;;6.07;3.15;;;27.40;99.90;;;;;;6113253;23;20022;-80
2021/07/26 10:52:22;;;;;;;4.28;2.50;;;27.30;99.90;;;;;;6099746;23;20347;-80
2021/07/26 10:54:49;;;;;;;4.75;3.03;;;27.30;99.90;;;;;;6136102;23;20482;-79
2021/07/26 10:57:39;;;;;;;7.25;2.80;;;27.70;99.90;;;;;;6124094;23;20021;-80
2021/07/26 11:00:08;;;;;;;4.75;2.53;;;27.80;99.90;;;;;;6154019;23;20492;-81
2021/07/26 11:02:37;;;;;;;3.25;2.15;;;27.90;99.90;;;;;;6164297;23;20089;-81
2021/07/26 11:05:25;;;;;;;4.28;2.25;;;28.10;99.90;;;;;;6154828;23;20017;-82
2021/07/26 11:08:12;;;;;;;3.58;2.28;;;28.30;99.90;;;;;;6129711;23;20438;-81
2021/07/26 11:10:45;;;;;;;4.15;2.38;;;28.40;99.90;;;;;;6165821;23;20081;-81
2021/07/26 11:13:12;;;;;;;5.13;2.55;;;28.50;99.90;;;;;;6127870;23;20099;-80
2021/07/26 11:15:44;;;;;;;4.60;2.42;;;28.00;99.90;;;;;;6165061;23;20037;-82
2021/07/26 11:18:19;;;;;;;4.20;2.25;;;28.00;99.90;;;;;;6154209;23;20087;-82
2021/07/26 11:21:02;;;;;;;2.75;2.05;;;28.30;99.90;;;;;;6129389;23;20072;-81
2021/07/26 11:24:01;;;;;;;5.03;2.27;;;28.60;99.90;;;;;;6128912;23;20104;-82
2021/07/26 11:26:29;;;;;;;2.28;2.08;;;28.80;99.90;;;;;;6100062;23;20481;-80
2021/07/26 11:29:03;;;;;;;7.88;2.63;;;29.00;99.90;;;;;;6106905;23;20025;-80
2021/07/26 11:31:32;;;;;;;4.80;2.60;;;29.10;99.90;;;;;;6106338;23;20033;-82
2021/07/26 11:34:11;;;;;;;5.65;2.65;;;28.80;99.90;;;;;;6100242;23;20018;-80
2021/07/26 11:37:04;;;;;;;3.15;2.22;;;29.10;99.90;;;;;;6128749;23;20018;-81
2021/07/26 11:39:45;;;;;;;6.35;2.50;;;29.40;99.90;;;;;;6103255;23;20014;-82
2021/07/26 11:42:12;;;;;;;5.57;2.65;;;29.30;99.90;;;;;;6130796;23;20022;-82
2021/07/26 11:44:40;;;;;;;3.78;2.85;;;28.90;99.90;;;;;;6108436;23;20018;-81
2021/07/26 11:47:06;;;;;;;3.60;2.20;;;28.50;99.90;;;;;;6132842;23;20398;-81
2021/07/26 11:49:33;;;;;;;4.57;2.33;;;28.40;99.90;;;;;;6121390;23;20110;-80
2021/07/26 11:52:09;;;;;;;3.90;2.00;;;28.40;99.90;;;;;;6120128;23;20529;-80
2021/07/26 11:54:35;;;;;;;3.30;2.15;;;28.80;99.90;;;;;;6120952;23;20073;-80
2021/07/26 11:57:04;;;;;;;2.90;2.00;;;29.10;99.90;;;;;;6131440;23;20013;-82
2021/07/26 11:59:31;;;;;;;3.10;2.60;;;29.30;99.90;;;;;;6096191;23;20021;-82
2021/07/26 12:02:10;;;;;;;3.95;2.55;;;29.20;99.90;;;;;;6106449;23;20044;-81
2021/07/26 12:04:36;;;;;;;5.20;2.70;;;28.70;99.90;;;;;;6127300;23;20025;-81
2021/07/26 12:07:04;;;;;;;4.50;2.83;;;28.40;99.90;;;;;;6098275;23;20072;-81
2021/07/26 12:09:31;;;;;;;6.70;2.95;;;28.50;99.90;;;;;;6124711;23;20010;-80
2021/07/26 12:12:14;;;;;;;3.92;2.60;;;28.60;99.90;;;;;;6134627;23;20331;-80
2021/07/26 12:14:44;;;;;;;3.70;2.70;;;29.00;99.90;;;;;;6124043;23;20045;-80
2021/07/26 12:17:28;;;;;;;3.30;2.67;;;28.80;99.90;;;;;;6122524;23;20022;-82
2021/07/26 12:20:04;;;;;;;3.40;2.42;;;28.80;99.90;;;;;;6123305;23;20096;-81
2021/07/26 12:22:40;;;;;;;2.47;2.00;;;28.50;99.90;;;;;;6133800;23;20020;-82
2021/07/26 12:25:21;;;;;;;5.15;2.13;;;28.50;99.90;;;;;;6123265;23;20014;-82
2021/07/26 12:28:04;;;;;;;3.35;2.58;;;28.30;99.90;;;;;;6135108;23;20413;-82
2021/07/26 12:30:35;;;;;;;4.75;2.38;;;28.50;99.90;;;;;;6148789;23;20037;-83
2021/07/26 12:33:01;;;;;;;3.85;2.50;;;28.90;99.90;;;;;;6133211;23;20014;-83
2021/07/26 12:35:28;;;;;;;8.00;2.50;;;29.30;99.90;;;;;;6132025;23;20457;-80
2021/07/26 12:38:20;;;;;;;5.13;2.50;;;29.60;99.90;;;;;;6122417;23;20386;-84
2021/07/26 12:40:49;;;;;;;5.07;2.40;;;29.50;99.90;;;;;;6119393;23;20076;-82
2021/07/26 12:43:19;;;;;;;3.83;2.30;;;29.10;99.90;;;;;;6132660;23;20021;-81
2021/07/26 12:46:05;;;;;;;2.88;2.20;;;28.70;99.90;;;;;;6134389;23;20014;-80